sensor_id;sensor_type;location;lat;lon;timestamp;temperature;humidity
43414;DHT22;29013;49.676;8.606;2023-04-30T00:01:22;13.8;99.9
43414;DHT22;29013;49.676;8.606;2023-04-30T00:06:44;13.7;99.9
43414;DHT22;29013;49.676;8.606;2023-04-30T00:12:09;13.7;99.9
43414;DHT22;29013;49.676;8.606;2023-04-30T00:17:54;13.6;99.9
43414;DHT22;29013;49.676;8.606;2023-04-30T00:23:15;13.7;99.9
43414;DHT22;29013;49.676;8.606;2023-04-30T00:28:40;13.6;99.9
43414;DHT22;29013;49.676;8.606;2023-04-30T00:34:02;13.5;99.9
43414;DHT22;29013;49.676;8.606;2023-04-30T00:39:28;13.3;99.9
43414;DHT22;29013;49.676;8.606;2023-04-30T00:44:48;13.3;99.9
43414;DHT22;29013;49.676;8.606;2023-04-30T00:50:11;13.4;99.9
43414;DHT22;29013;49.676;8.606;2023-04-30T00:55:35;13.4;99.9
43414;DHT22;29013;49.676;8.606;2023-04-30T01:01:00;13.4;99.9
43414;DHT22;29013;49.676;8.606;2023-04-30T01:06:23;13.4;99.9
43414;DHT22;29013;49.676;8.606;2023-04-30T01:11:51;13.4;99.9
43414;DHT22;29013;49.676;8.606;2023-04-30T01:17:16;13.4;99.9
43414;DHT22;29013;49.676;8.606;2023-04-30T01:22:41;13.4;99.9
43414;DHT22;29013;49.676;8.606;2023-04-30T01:28:05;13.4;99.9
43414;DHT22;29013;49.676;8.606;2023-04-30T01:33:45;13.1;99.9
43414;DHT22;29013;49.676;8.606;2023-04-30T01:39:18;13.3;99.9
43414;DHT22;29013;49.676;8.606;2023-04-30T01:45:09;13.3;99.9
43414;DHT22;29013;49.676;8.606;2023-04-30T01:50:32;13.5;99.9
43414;DHT22;29013;49.676;8.606;2023-04-30T01:55:55;13.4;99.9
43414;DHT22;29013;49.676;8.606;2023-04-30T02:01:28;13.4;99.9
43414;DHT22;29013;49.676;8.606;2023-04-30T02:06:44;13.4;99.9
43414;DHT22;29013;49.676;8.606;2023-04-30T02:12:07;13.4;99.9
43414;DHT22;29013;49.676;8.606;2023-04-30T02:17:31;13.3;99.9
43414;DHT22;29013;49.676;8.606;2023-04-30T02:22:53;13.1;99.9
43414;DHT22;29013;49.676;8.606;2023-04-30T02:28:13;12.9;99.9
43414;DHT22;29013;49.676;8.606;2023-04-30T02:33:37;12.8;99.9
43414;DHT22;29013;49.676;8.606;2023-04-30T02:39:27;12.9;99.9
43414;DHT22;29013;49.676;8.606;2023-04-30T02:44:51;13.1;99.9
43414;DHT22;29013;49.676;8.606;2023-04-30T02:50:13;13.2;99.9
43414;DHT22;29013;49.676;8.606;2023-04-30T02:55:36;13.2;99.9
43414;DHT22;29013;49.676;8.606;2023-04-30T03:00:59;13.2;99.9
43414;DHT22;29013;49.676;8.606;2023-04-30T03:06:23;13.2;99.9
43414;DHT22;29013;49.676;8.606;2023-04-30T03:11:47;13.1;99.9
43414;DHT22;29013;49.676;8.606;2023-04-30T03:17:12;13.0;99.9
43414;DHT22;29013;49.676;8.606;2023-04-30T03:22:35;12.9;99.9
43414;DHT22;29013;49.676;8.606;2023-04-30T03:28:21;12.7;99.9
43414;DHT22;29013;49.676;8.606;2023-04-30T03:33:41;12.8;99.9
43414;DHT22;29013;49.676;8.606;2023-04-30T03:39:03;12.7;99.9
43414;DHT22;29013;49.676;8.606;2023-04-30T03:44:27;12.6;99.9
43414;DHT22;29013;49.676;8.606;2023-04-30T03:49:53;12.5;99.9
43414;DHT22;29013;49.676;8.606;2023-04-30T03:55:19;12.6;99.9
43414;DHT22;29013;49.676;8.606;2023-04-30T04:00:45;12.7;99.9
43414;DHT22;29013;49.676;8.606;2023-04-30T04:06:10;12.8;99.9
43414;DHT22;29013;49.676;8.606;2023-04-30T04:11:36;12.8;99.9
43414;DHT22;29013;49.676;8.606;2023-04-30T04:17:00;12.9;99.9
43414;DHT22;29013;49.676;8.606;2023-04-30T04:22:26;12.9;99.9
43414;DHT22;29013;49.676;8.606;2023-04-30T04:27:45;12.9;99.9
43414;DHT22;29013;49.676;8.606;2023-04-30T04:33:09;13.0;99.9
43414;DHT22;29013;49.676;8.606;2023-04-30T04:38:32;13.0;99.9
43414;DHT22;29013;49.676;8.606;2023-04-30T04:45:00;13.0;99.9
43414;DHT22;29013;49.676;8.606;2023-04-30T04:50:19;13.4;99.9
43414;DHT22;29013;49.676;8.606;2023-04-30T04:55:37;13.4;99.9
43414;DHT22;29013;49.676;8.606;2023-04-30T05:00:59;13.4;99.9
43414;DHT22;29013;49.676;8.606;2023-04-30T05:06:22;13.3;99.9
43414;DHT22;29013;49.676;8.606;2023-04-30T05:11:44;13.2;99.9
43414;DHT22;29013;49.676;8.606;2023-04-30T05:17:09;13.2;99.9
43414;DHT22;29013;49.676;8.606;2023-04-30T05:22:30;13.2;99.9
43414;DHT22;29013;49.676;8.606;2023-04-30T05:27:55;13.1;99.9
43414;DHT22;29013;49.676;8.606;2023-04-30T05:33:17;13.2;99.9
43414;DHT22;29013;49.676;8.606;2023-04-30T05:38:36;13.5;99.9
43414;DHT22;29013;49.676;8.606;2023-04-30T05:43:56;13.6;99.9
43414;DHT22;29013;49.676;8.606;2023-04-30T05:49:21;13.7;99.9
43414;DHT22;29013;49.676;8.606;2023-04-30T05:54:46;13.9;99.9
43414;DHT22;29013;49.676;8.606;2023-04-30T06:00:13;14.0;99.9
43414;DHT22;29013;49.676;8.606;2023-04-30T06:05:37;14.1;99.9
43414;DHT22;29013;49.676;8.606;2023-04-30T06:11:26;14.2;99.9
43414;DHT22;29013;49.676;8.606;2023-04-30T06:16:50;14.4;99.9
43414;DHT22;29013;49.676;8.606;2023-04-30T06:22:14;14.6;99.9
43414;DHT22;29013;49.676;8.606;2023-04-30T06:27:34;14.8;99.9
43414;DHT22;29013;49.676;8.606;2023-04-30T06:32:58;14.9;99.9
43414;DHT22;29013;49.676;8.606;2023-04-30T06:38:23;15.0;99.9
43414;DHT22;29013;49.676;8.606;2023-04-30T06:44:04;15.1;99.9
43414;DHT22;29013;49.676;8.606;2023-04-30T06:49:27;15.2;99.9
43414;DHT22;29013;49.676;8.606;2023-04-30T06:54:52;15.4;99.8
43414;DHT22;29013;49.676;8.606;2023-04-30T07:00:18;15.5;99.9
43414;DHT22;29013;49.676;8.606;2023-04-30T07:05:40;15.7;99.7
43414;DHT22;29013;49.676;8.606;2023-04-30T07:11:02;15.9;98.9
43414;DHT22;29013;49.676;8.606;2023-04-30T07:16:24;15.8;98.6
43414;DHT22;29013;49.676;8.606;2023-04-30T07:21:46;15.7;98.9
43414;DHT22;29013;49.676;8.606;2023-04-30T07:27:11;15.6;98.7
43414;DHT22;29013;49.676;8.606;2023-04-30T07:32:33;15.5;99.0
43414;DHT22;29013;49.676;8.606;2023-04-30T07:37:57;15.4;99.0
43414;DHT22;29013;49.676;8.606;2023-04-30T07:43:20;15.4;98.5
43414;DHT22;29013;49.676;8.606;2023-04-30T07:48:38;15.4;98.6
43414;DHT22;29013;49.676;8.606;2023-04-30T07:54:01;15.4;97.9
43414;DHT22;29013;49.676;8.606;2023-04-30T07:59:25;15.3;98.4
43414;DHT22;29013;49.676;8.606;2023-04-30T08:04:51;15.1;98.1
43414;DHT22;29013;49.676;8.606;2023-04-30T08:10:15;15.1;98.4
43414;DHT22;29013;49.676;8.606;2023-04-30T08:15:38;15.3;97.5
43414;DHT22;29013;49.676;8.606;2023-04-30T08:21:03;15.5;96.8
43414;DHT22;29013;49.676;8.606;2023-04-30T08:26:25;15.8;97.0
43414;DHT22;29013;49.676;8.606;2023-04-30T08:31:48;15.9;96.1
43414;DHT22;29013;49.676;8.606;2023-04-30T08:37:12;16.0;95.6
43414;DHT22;29013;49.676;8.606;2023-04-30T08:42:40;16.3;95.7
43414;DHT22;29013;49.676;8.606;2023-04-30T08:48:30;16.5;95.4
43414;DHT22;29013;49.676;8.606;2023-04-30T08:53:50;17.0;94.3
43414;DHT22;29013;49.676;8.606;2023-04-30T08:59:14;17.2;94.9
43414;DHT22;29013;49.676;8.606;2023-04-30T09:04:39;16.8;94.4
43414;DHT22;29013;49.676;8.606;2023-04-30T09:10:04;16.6;94.5
43414;DHT22;29013;49.676;8.606;2023-04-30T09:15:25;16.9;93.8
43414;DHT22;29013;49.676;8.606;2023-04-30T09:20:59;17.2;93.7
43414;DHT22;29013;49.676;8.606;2023-04-30T09:26:29;17.4;92.7
43414;DHT22;29013;49.676;8.606;2023-04-30T09:31:47;17.4;92.0
43414;DHT22;29013;49.676;8.606;2023-04-30T09:37:09;17.5;90.8
43414;DHT22;29013;49.676;8.606;2023-04-30T09:42:33;17.6;91.1
43414;DHT22;29013;49.676;8.606;2023-04-30T09:48:00;17.6;90.6
43414;DHT22;29013;49.676;8.606;2023-04-30T09:53:23;17.7;89.0
43414;DHT22;29013;49.676;8.606;2023-04-30T09:58:50;17.8;90.0
43414;DHT22;29013;49.676;8.606;2023-04-30T10:04:10;18.1;88.9
43414;DHT22;29013;49.676;8.606;2023-04-30T10:09:30;18.5;90.1
43414;DHT22;29013;49.676;8.606;2023-04-30T10:14:52;18.7;88.6
43414;DHT22;29013;49.676;8.606;2023-04-30T10:20:16;18.8;88.9
43414;DHT22;29013;49.676;8.606;2023-04-30T10:25:40;18.8;88.5
43414;DHT22;29013;49.676;8.606;2023-04-30T10:31:05;18.5;85.1
43414;DHT22;29013;49.676;8.606;2023-04-30T10:36:32;18.2;84.0
43414;DHT22;29013;49.676;8.606;2023-04-30T10:41:52;18.2;83.8
43414;DHT22;29013;49.676;8.606;2023-04-30T10:47:12;18.3;82.2
43414;DHT22;29013;49.676;8.606;2023-04-30T10:52:36;18.4;81.2
43414;DHT22;29013;49.676;8.606;2023-04-30T10:57:56;18.4;78.6
43414;DHT22;29013;49.676;8.606;2023-04-30T11:03:15;18.4;80.0
43414;DHT22;29013;49.676;8.606;2023-04-30T11:08:41;18.3;80.0
43414;DHT22;29013;49.676;8.606;2023-04-30T11:14:04;18.5;80.9
43414;DHT22;29013;49.676;8.606;2023-04-30T11:19:25;18.6;80.0
43414;DHT22;29013;49.676;8.606;2023-04-30T11:24:59;18.7;79.4
43414;DHT22;29013;49.676;8.606;2023-04-30T11:30:15;18.9;77.5
43414;DHT22;29013;49.676;8.606;2023-04-30T11:35:37;19.0;77.6
43414;DHT22;29013;49.676;8.606;2023-04-30T11:41:02;19.1;77.0
43414;DHT22;29013;49.676;8.606;2023-04-30T11:46:27;19.1;76.2
43414;DHT22;29013;49.676;8.606;2023-04-30T11:51:50;19.4;78.7
43414;DHT22;29013;49.676;8.606;2023-04-30T11:57:14;19.7;77.3
43414;DHT22;29013;49.676;8.606;2023-04-30T12:02:38;19.5;73.9
43414;DHT22;29013;49.676;8.606;2023-04-30T12:08:03;19.4;74.0
43414;DHT22;29013;49.676;8.606;2023-04-30T12:13:25;19.4;73.7
43414;DHT22;29013;49.676;8.606;2023-04-30T12:18:51;19.3;74.1
43414;DHT22;29013;49.676;8.606;2023-04-30T12:24:13;19.3;73.2
43414;DHT22;29013;49.676;8.606;2023-04-30T12:29:39;19.4;71.9
43414;DHT22;29013;49.676;8.606;2023-04-30T12:35:01;19.7;71.5
43414;DHT22;29013;49.676;8.606;2023-04-30T12:40:26;20.0;72.5
43414;DHT22;29013;49.676;8.606;2023-04-30T12:45:51;20.2;72.0
43414;DHT22;29013;49.676;8.606;2023-04-30T12:51:18;20.4;71.0
43414;DHT22;29013;49.676;8.606;2023-04-30T12:57:03;20.4;74.2
43414;DHT22;29013;49.676;8.606;2023-04-30T13:02:26;20.8;73.6
43414;DHT22;29013;49.676;8.606;2023-04-30T13:07:52;20.9;70.9
43414;DHT22;29013;49.676;8.606;2023-04-30T13:13:16;21.2;72.4
43414;DHT22;29013;49.676;8.606;2023-04-30T13:18:41;21.2;70.4
43414;DHT22;29013;49.676;8.606;2023-04-30T13:24:07;21.2;71.9
43414;DHT22;29013;49.676;8.606;2023-04-30T13:29:31;21.0;68.3
43414;DHT22;29013;49.676;8.606;2023-04-30T13:34:50;20.8;69.2
43414;DHT22;29013;49.676;8.606;2023-04-30T13:40:14;20.5;67.7
43414;DHT22;29013;49.676;8.606;2023-04-30T13:45:59;20.4;68.4
43414;DHT22;29013;49.676;8.606;2023-04-30T13:51:21;20.8;66.4
43414;DHT22;29013;49.676;8.606;2023-04-30T13:56:46;21.0;67.5
43414;DHT22;29013;49.676;8.606;2023-04-30T14:02:09;21.3;70.2
43414;DHT22;29013;49.676;8.606;2023-04-30T14:07:34;21.4;68.0
43414;DHT22;29013;49.676;8.606;2023-04-30T14:12:56;21.1;67.1
43414;DHT22;29013;49.676;8.606;2023-04-30T14:18:20;21.0;70.2
43414;DHT22;29013;49.676;8.606;2023-04-30T14:23:42;21.2;68.4
43414;DHT22;29013;49.676;8.606;2023-04-30T14:29:06;21.5;66.8
43414;DHT22;29013;49.676;8.606;2023-04-30T14:34:32;21.4;67.8
43414;DHT22;29013;49.676;8.606;2023-04-30T14:39:57;21.2;66.7
43414;DHT22;29013;49.676;8.606;2023-04-30T14:45:27;21.2;69.0
43414;DHT22;29013;49.676;8.606;2023-04-30T14:50:50;21.6;66.1
43414;DHT22;29013;49.676;8.606;2023-04-30T14:56:15;21.6;64.7
43414;DHT22;29013;49.676;8.606;2023-04-30T15:01:40;21.3;66.5
43414;DHT22;29013;49.676;8.606;2023-04-30T15:07:02;21.1;66.9
43414;DHT22;29013;49.676;8.606;2023-04-30T15:12:27;21.2;65.7
43414;DHT22;29013;49.676;8.606;2023-04-30T15:17:52;21.8;65.8
43414;DHT22;29013;49.676;8.606;2023-04-30T15:23:18;22.3;68.9
43414;DHT22;29013;49.676;8.606;2023-04-30T15:28:43;23.1;65.7
43414;DHT22;29013;49.676;8.606;2023-04-30T15:34:08;23.4;63.6
43414;DHT22;29013;49.676;8.606;2023-04-30T15:39:33;23.4;61.1
43414;DHT22;29013;49.676;8.606;2023-04-30T15:44:57;23.0;61.1
43414;DHT22;29013;49.676;8.606;2023-04-30T15:50:20;22.2;59.7
43414;DHT22;29013;49.676;8.606;2023-04-30T15:55:41;21.6;60.6
43414;DHT22;29013;49.676;8.606;2023-04-30T16:01:05;21.6;59.7
43414;DHT22;29013;49.676;8.606;2023-04-30T16:06:44;21.8;60.8
43414;DHT22;29013;49.676;8.606;2023-04-30T16:12:04;22.1;62.1
43414;DHT22;29013;49.676;8.606;2023-04-30T16:17:25;22.1;63.7
43414;DHT22;29013;49.676;8.606;2023-04-30T16:22:44;22.1;60.1
43414;DHT22;29013;49.676;8.606;2023-04-30T16:28:02;22.1;61.6
43414;DHT22;29013;49.676;8.606;2023-04-30T16:33:25;22.1;63.1
43414;DHT22;29013;49.676;8.606;2023-04-30T16:38:48;22.0;60.3
43414;DHT22;29013;49.676;8.606;2023-04-30T16:44:13;22.0;60.8
43414;DHT22;29013;49.676;8.606;2023-04-30T16:49:38;22.0;61.0
43414;DHT22;29013;49.676;8.606;2023-04-30T16:54:57;21.8;60.7
43414;DHT22;29013;49.676;8.606;2023-04-30T17:00:21;21.5;59.0
43414;DHT22;29013;49.676;8.606;2023-04-30T17:05:45;21.2;59.8
43414;DHT22;29013;49.676;8.606;2023-04-30T17:11:09;21.0;61.9
43414;DHT22;29013;49.676;8.606;2023-04-30T17:16:34;20.7;62.0
43414;DHT22;29013;49.676;8.606;2023-04-30T17:21:56;20.7;63.4
43414;DHT22;29013;49.676;8.606;2023-04-30T17:27:20;20.5;62.7
43414;DHT22;29013;49.676;8.606;2023-04-30T17:33:09;20.3;62.8
43414;DHT22;29013;49.676;8.606;2023-04-30T17:38:29;20.3;63.3
43414;DHT22;29013;49.676;8.606;2023-04-30T17:43:50;20.0;63.2
43414;DHT22;29013;49.676;8.606;2023-04-30T17:49:11;19.9;64.3
43414;DHT22;29013;49.676;8.606;2023-04-30T17:54:34;19.7;63.7
43414;DHT22;29013;49.676;8.606;2023-04-30T17:59:58;19.5;64.6
43414;DHT22;29013;49.676;8.606;2023-04-30T18:05:23;19.3;65.4
43414;DHT22;29013;49.676;8.606;2023-04-30T18:10:49;19.1;66.8
43414;DHT22;29013;49.676;8.606;2023-04-30T18:16:13;18.9;68.4
43414;DHT22;29013;49.676;8.606;2023-04-30T18:21:38;18.6;69.1
43414;DHT22;29013;49.676;8.606;2023-04-30T18:27:26;18.2;72.0
43414;DHT22;29013;49.676;8.606;2023-04-30T18:32:49;18.1;71.8
43414;DHT22;29013;49.676;8.606;2023-04-30T18:38:13;17.9;72.9
43414;DHT22;29013;49.676;8.606;2023-04-30T18:43:38;17.5;76.4
43414;DHT22;29013;49.676;8.606;2023-04-30T18:49:03;17.2;79.6
43414;DHT22;29013;49.676;8.606;2023-04-30T18:54:26;17.0;81.8
43414;DHT22;29013;49.676;8.606;2023-04-30T19:00:12;16.6;83.4
43414;DHT22;29013;49.676;8.606;2023-04-30T19:05:31;16.7;82.9
43414;DHT22;29013;49.676;8.606;2023-04-30T19:10:53;16.4;83.9
43414;DHT22;29013;49.676;8.606;2023-04-30T19:16:17;16.3;83.8
43414;DHT22;29013;49.676;8.606;2023-04-30T19:21:41;16.1;84.2
43414;DHT22;29013;49.676;8.606;2023-04-30T19:27:03;16.0;84.2
43414;DHT22;29013;49.676;8.606;2023-04-30T19:32:26;15.9;84.9
43414;DHT22;29013;49.676;8.606;2023-04-30T19:37:51;15.9;84.7
43414;DHT22;29013;49.676;8.606;2023-04-30T19:43:15;15.8;84.8
43414;DHT22;29013;49.676;8.606;2023-04-30T19:48:56;15.7;85.5
43414;DHT22;29013;49.676;8.606;2023-04-30T19:54:19;15.8;85.3
43414;DHT22;29013;49.676;8.606;2023-04-30T19:59:45;15.7;85.5
43414;DHT22;29013;49.676;8.606;2023-04-30T20:05:09;15.6;85.7
43414;DHT22;29013;49.676;8.606;2023-04-30T20:10:34;15.5;86.3
43414;DHT22;29013;49.676;8.606;2023-04-30T20:15:56;15.4;86.5
43414;DHT22;29013;49.676;8.606;2023-04-30T20:21:19;15.3;86.9
43414;DHT22;29013;49.676;8.606;2023-04-30T20:26:44;15.3;87.1
43414;DHT22;29013;49.676;8.606;2023-04-30T20:32:08;15.1;86.9
43414;DHT22;29013;49.676;8.606;2023-04-30T20:37:33;15.1;87.0
43414;DHT22;29013;49.676;8.606;2023-04-30T20:42:56;15.0;87.4
43414;DHT22;29013;49.676;8.606;2023-04-30T20:48:21;15.0;87.4
43414;DHT22;29013;49.676;8.606;2023-04-30T20:53:46;15.0;87.5
43414;DHT22;29013;49.676;8.606;2023-04-30T20:59:07;15.0;87.8
43414;DHT22;29013;49.676;8.606;2023-04-30T21:04:31;15.0;87.7
43414;DHT22;29013;49.676;8.606;2023-04-30T21:09:57;15.0;88.0
43414;DHT22;29013;49.676;8.606;2023-04-30T21:15:22;15.0;87.9
43414;DHT22;29013;49.676;8.606;2023-04-30T21:20:46;15.1;88.0
43414;DHT22;29013;49.676;8.606;2023-04-30T21:26:11;15.1;87.9
43414;DHT22;29013;49.676;8.606;2023-04-30T21:31:34;15.1;87.9
43414;DHT22;29013;49.676;8.606;2023-04-30T21:36:55;15.1;87.9
43414;DHT22;29013;49.676;8.606;2023-04-30T21:42:16;15.1;87.6
43414;DHT22;29013;49.676;8.606;2023-04-30T21:47:39;15.0;87.9
43414;DHT22;29013;49.676;8.606;2023-04-30T21:53:01;14.9;88.3
43414;DHT22;29013;49.676;8.606;2023-04-30T21:58:26;14.8;88.7
43414;DHT22;29013;49.676;8.606;2023-04-30T22:03:47;14.8;89.0
43414;DHT22;29013;49.676;8.606;2023-04-30T22:09:33;14.6;89.7
43414;DHT22;29013;49.676;8.606;2023-04-30T22:14:57;14.7;88.9
43414;DHT22;29013;49.676;8.606;2023-04-30T22:20:21;14.7;88.6
43414;DHT22;29013;49.676;8.606;2023-04-30T22:25:47;14.7;89.3
43414;DHT22;29013;49.676;8.606;2023-04-30T22:31:10;14.8;88.9
43414;DHT22;29013;49.676;8.606;2023-04-30T22:36:32;14.8;88.0
43414;DHT22;29013;49.676;8.606;2023-04-30T22:41:51;15.0;86.7
43414;DHT22;29013;49.676;8.606;2023-04-30T22:47:11;15.1;85.6
43414;DHT22;29013;49.676;8.606;2023-04-30T22:52:33;15.1;86.3
43414;DHT22;29013;49.676;8.606;2023-04-30T22:57:56;15.0;85.4
43414;DHT22;29013;49.676;8.606;2023-04-30T23:03:20;14.8;84.9
43414;DHT22;29013;49.676;8.606;2023-04-30T23:08:45;14.8;85.4
43414;DHT22;29013;49.676;8.606;2023-04-30T23:14:10;14.8;84.9
43414;DHT22;29013;49.676;8.606;2023-04-30T23:19:32;14.8;85.2
43414;DHT22;29013;49.676;8.606;2023-04-30T23:25:19;14.6;85.3
43414;DHT22;29013;49.676;8.606;2023-04-30T23:30:43;14.8;85.0
43414;DHT22;29013;49.676;8.606;2023-04-30T23:36:05;14.6;85.1
43414;DHT22;29013;49.676;8.606;2023-04-30T23:41:28;14.6;85.1
43414;DHT22;29013;49.676;8.606;2023-04-30T23:47:13;14.6;86.2
43414;DHT22;29013;49.676;8.606;2023-04-30T23:52:34;14.6;85.5
43414;DHT22;29013;49.676;8.606;2023-04-30T23:57:58;14.6;85.7
